KGA1 FAGG-FACT
Flight info
| Callsign | KGA1 |
|---|---|
| Flight time | 1h 19m |
| Altitude | 10000 |
| Route | APGUP Q49 ESRUK Q51 GETEN GETEN1B |
| Aircraft | AEST/L-SDFGRY/S |
Departure
| Time | 2026-04-27 11:57 |
|---|---|
| Airport | George Airport (FAGG) |
Arrival
| Time | 2026-04-27 13:16 |
|---|---|
| Airport | Cape Town International Airport (FACT) |
| Time | Latitude | Longitude | Altitude | Speed | Heading |
|---|---|---|---|---|---|
| 2026-04-27 11:43 | -33.99988 | 22.37725 | 632 ft | 0 kts | 90° |
| 2026-04-27 11:52 | -33.99990 | 22.37732 | 637 ft | 2 kts | 132° |
| 2026-04-27 11:52 | -34.00010 | 22.37720 | 633 ft | 4 kts | 276° |
| 2026-04-27 11:52 | -34.00004 | 22.37680 | 632 ft | 5 kts | 251° |
| 2026-04-27 11:53 | -34.00007 | 22.37675 | 632 ft | 2 kts | 225° |
| 2026-04-27 11:53 | -34.00037 | 22.37674 | 632 ft | 5 kts | 169° |
| 2026-04-27 11:53 | -34.00074 | 22.37679 | 632 ft | 7 kts | 178° |
| 2026-04-27 11:53 | -34.00157 | 22.37680 | 632 ft | 15 kts | 179° |
| 2026-04-27 11:54 | -34.00253 | 22.37677 | 636 ft | 13 kts | 179° |
| 2026-04-27 11:54 | -34.00339 | 22.37689 | 635 ft | 10 kts | 128° |
| 2026-04-27 11:54 | -34.00343 | 22.37784 | 636 ft | 14 kts | 87° |
| 2026-04-27 11:54 | -34.00341 | 22.37901 | 643 ft | 13 kts | 88° |
| 2026-04-27 11:55 | -34.00336 | 22.38019 | 645 ft | 17 kts | 90° |
| 2026-04-27 11:55 | -34.00331 | 22.38183 | 642 ft | 22 kts | 90° |
| 2026-04-27 11:55 | -34.00325 | 22.38384 | 640 ft | 25 kts | 90° |
| 2026-04-27 11:55 | -34.00317 | 22.38599 | 641 ft | 26 kts | 88° |
| 2026-04-27 11:56 | -34.00312 | 22.38823 | 643 ft | 26 kts | 92° |
| 2026-04-27 11:56 | -34.00426 | 22.38917 | 651 ft | 20 kts | 177° |
| 2026-04-27 11:56 | -34.00522 | 22.38871 | 651 ft | 4 kts | 270° |
| 2026-04-27 11:56 | -34.00526 | 22.38666 | 648 ft | 63 kts | 267° |
| 2026-04-27 11:57 | -34.00535 | 22.38003 | 790 ft | 83 kts | 269° |
| 2026-04-27 11:57 | -34.00570 | 22.37280 | 1025 ft | 91 kts | 263° |
| 2026-04-27 11:57 | -34.00615 | 22.36442 | 1379 ft | 111 kts | 264° |
| 2026-04-27 11:57 | -34.00646 | 22.35464 | 1832 ft | 122 kts | 266° |
| 2026-04-27 11:58 | -34.00647 | 22.34425 | 2303 ft | 126 kts | 265° |
| 2026-04-27 11:58 | -34.00660 | 22.33359 | 2774 ft | 128 kts | 266° |
| 2026-04-27 11:58 | -34.00655 | 22.32282 | 3242 ft | 129 kts | 267° |
| 2026-04-27 11:58 | -34.00650 | 22.31199 | 3724 ft | 129 kts | 267° |
| 2026-04-27 11:59 | -34.00645 | 22.30118 | 4193 ft | 129 kts | 267° |
| 2026-04-27 11:59 | -34.00642 | 22.29050 | 4665 ft | 127 kts | 268° |
| 2026-04-27 11:59 | -34.00636 | 22.27984 | 5121 ft | 127 kts | 268° |
| 2026-04-27 11:59 | -34.00632 | 22.26917 | 5561 ft | 127 kts | 268° |
| 2026-04-27 12:00 | -34.00626 | 22.25867 | 5996 ft | 126 kts | 268° |
| 2026-04-27 12:00 | -34.00620 | 22.24803 | 6425 ft | 127 kts | 267° |
| 2026-04-27 12:00 | -34.00614 | 22.23737 | 6843 ft | 126 kts | 267° |
| 2026-04-27 12:00 | -34.00608 | 22.22690 | 7248 ft | 124 kts | 267° |
| 2026-04-27 12:01 | -34.00604 | 22.21647 | 7647 ft | 124 kts | 266° |
| 2026-04-27 12:01 | -34.00599 | 22.20619 | 8041 ft | 122 kts | 266° |
| 2026-04-27 12:01 | -34.00593 | 22.19604 | 8434 ft | 120 kts | 266° |
| 2026-04-27 12:01 | -34.00588 | 22.18596 | 8814 ft | 120 kts | 265° |
| 2026-04-27 12:02 | -34.00584 | 22.17593 | 9188 ft | 119 kts | 266° |
| 2026-04-27 12:02 | -34.00579 | 22.16596 | 9543 ft | 119 kts | 266° |
| 2026-04-27 12:02 | -34.00571 | 22.15607 | 9903 ft | 117 kts | 265° |
| 2026-04-27 12:02 | -34.00568 | 22.14642 | 10232 ft | 116 kts | 265° |
| 2026-04-27 12:03 | -34.00565 | 22.13677 | 10532 ft | 114 kts | 265° |
| 2026-04-27 12:03 | -34.00559 | 22.12727 | 10813 ft | 112 kts | 265° |
| 2026-04-27 12:03 | -34.00554 | 22.11805 | 11089 ft | 109 kts | 265° |
| 2026-04-27 12:03 | -34.00549 | 22.10907 | 11353 ft | 105 kts | 265° |
| 2026-04-27 12:04 | -34.00546 | 22.09959 | 11272 ft | 132 kts | 266° |
| 2026-04-27 12:04 | -34.00540 | 22.08696 | 10903 ft | 166 kts | 267° |
| 2026-04-27 12:04 | -34.00525 | 22.07209 | 10533 ft | 187 kts | 268° |
| 2026-04-27 12:04 | -34.00513 | 22.05577 | 10164 ft | 201 kts | 267° |
| 2026-04-27 12:05 | -34.00500 | 22.03853 | 9875 ft | 205 kts | 267° |
| 2026-04-27 12:05 | -34.00489 | 22.02203 | 9910 ft | 194 kts | 267° |
| 2026-04-27 12:05 | -34.00476 | 22.00599 | 9973 ft | 185 kts | 266° |
| 2026-04-27 12:05 | -34.00467 | 21.99091 | 10036 ft | 180 kts | 266° |
| 2026-04-27 12:06 | -34.00461 | 21.97572 | 9994 ft | 184 kts | 266° |
| 2026-04-27 12:06 | -34.00454 | 21.96027 | 9980 ft | 183 kts | 267° |
| 2026-04-27 12:06 | -34.00440 | 21.94506 | 10014 ft | 181 kts | 267° |
| 2026-04-27 12:06 | -34.00427 | 21.92982 | 10003 ft | 182 kts | 267° |
| 2026-04-27 12:07 | -34.00416 | 21.91456 | 10023 ft | 179 kts | 267° |
| 2026-04-27 12:07 | -34.00403 | 21.90004 | 10254 ft | 168 kts | 266° |
| 2026-04-27 12:07 | -34.00396 | 21.88589 | 10270 ft | 172 kts | 266° |
| 2026-04-27 12:07 | -34.00384 | 21.87127 | 10227 ft | 176 kts | 267° |
| 2026-04-27 12:08 | -34.00371 | 21.85649 | 10222 ft | 176 kts | 266° |
| 2026-04-27 12:08 | -34.00362 | 21.84174 | 10227 ft | 177 kts | 266° |
| 2026-04-27 12:08 | -34.00353 | 21.82685 | 10230 ft | 178 kts | 267° |
| 2026-04-27 12:08 | -34.00340 | 21.81182 | 10213 ft | 180 kts | 267° |
| 2026-04-27 12:09 | -34.00327 | 21.79676 | 10233 ft | 179 kts | 267° |
| 2026-04-27 12:09 | -34.00311 | 21.78173 | 10225 ft | 181 kts | 267° |
| 2026-04-27 12:09 | -34.00298 | 21.76678 | 10227 ft | 179 kts | 267° |
| 2026-04-27 12:09 | -34.00283 | 21.75180 | 10228 ft | 178 kts | 266° |
| 2026-04-27 12:10 | -34.00272 | 21.73687 | 10230 ft | 178 kts | 266° |
| 2026-04-27 12:10 | -34.00260 | 21.72192 | 10229 ft | 178 kts | 266° |
| 2026-04-27 12:10 | -34.00248 | 21.70697 | 10230 ft | 179 kts | 266° |
| 2026-04-27 12:10 | -34.00240 | 21.69180 | 10226 ft | 182 kts | 267° |
| 2026-04-27 12:11 | -34.00223 | 21.67655 | 10230 ft | 182 kts | 267° |
| 2026-04-27 12:11 | -34.00205 | 21.66131 | 10229 ft | 180 kts | 267° |
| 2026-04-27 12:11 | -34.00188 | 21.64627 | 10233 ft | 178 kts | 267° |
| 2026-04-27 12:11 | -34.00176 | 21.63133 | 10225 ft | 180 kts | 266° |
| 2026-04-27 12:12 | -34.00165 | 21.61646 | 10228 ft | 179 kts | 267° |
| 2026-04-27 12:12 | -34.00148 | 21.60144 | 10225 ft | 180 kts | 267° |
| 2026-04-27 12:12 | -34.00134 | 21.58626 | 10230 ft | 182 kts | 267° |
| 2026-04-27 12:12 | -34.00118 | 21.57099 | 10227 ft | 182 kts | 267° |
| 2026-04-27 12:13 | -34.00104 | 21.55572 | 10227 ft | 183 kts | 267° |
| 2026-04-27 12:13 | -34.00086 | 21.54040 | 10225 ft | 182 kts | 268° |
| 2026-04-27 12:13 | -34.00067 | 21.52522 | 10221 ft | 180 kts | 267° |
| 2026-04-27 12:13 | -34.00053 | 21.51003 | 10222 ft | 181 kts | 267° |
| 2026-04-27 12:14 | -34.00034 | 21.49500 | 10221 ft | 178 kts | 267° |
| 2026-04-27 12:14 | -34.00021 | 21.47997 | 10223 ft | 179 kts | 267° |
| 2026-04-27 12:14 | -34.00009 | 21.46488 | 10227 ft | 182 kts | 267° |
| 2026-04-27 12:14 | -33.99989 | 21.44987 | 10228 ft | 182 kts | 268° |
| 2026-04-27 12:15 | -33.99970 | 21.43461 | 10225 ft | 181 kts | 267° |
| 2026-04-27 12:15 | -33.99949 | 21.41953 | 10220 ft | 179 kts | 267° |
| 2026-04-27 12:15 | -33.99936 | 21.40443 | 10218 ft | 179 kts | 266° |
| 2026-04-27 12:15 | -33.99920 | 21.38943 | 10226 ft | 179 kts | 266° |
| 2026-04-27 12:16 | -33.99905 | 21.37438 | 10232 ft | 182 kts | 267° |
| 2026-04-27 12:16 | -33.99886 | 21.35909 | 10227 ft | 181 kts | 268° |
| 2026-04-27 12:16 | -33.99862 | 21.34397 | 10227 ft | 180 kts | 267° |
| 2026-04-27 12:16 | -33.99843 | 21.32882 | 10229 ft | 181 kts | 267° |
| 2026-04-27 12:17 | -33.99834 | 21.31875 | 10233 ft | 182 kts | 267° |
| 2026-04-27 12:17 | -33.99807 | 21.29846 | 10236 ft | 182 kts | 268° |
| 2026-04-27 12:17 | -33.99783 | 21.28330 | 10232 ft | 181 kts | 267° |
| 2026-04-27 12:17 | -33.99763 | 21.26810 | 10223 ft | 181 kts | 267° |
| 2026-04-27 12:18 | -33.99747 | 21.25288 | 10249 ft | 182 kts | 268° |
| 2026-04-27 12:18 | -33.99733 | 21.24261 | 10271 ft | 180 kts | 268° |
| 2026-04-27 12:18 | -33.99709 | 21.22761 | 10253 ft | 181 kts | 268° |
| 2026-04-27 12:18 | -33.99686 | 21.21246 | 10252 ft | 180 kts | 267° |
| 2026-04-27 12:19 | -33.99669 | 21.19727 | 10253 ft | 183 kts | 268° |
| 2026-04-27 12:19 | -33.99641 | 21.17692 | 10255 ft | 183 kts | 268° |
| 2026-04-27 12:19 | -33.99618 | 21.16160 | 10252 ft | 182 kts | 268° |
| 2026-04-27 12:19 | -33.99600 | 21.15139 | 10255 ft | 179 kts | 267° |
| 2026-04-27 12:20 | -33.99579 | 21.13650 | 10252 ft | 182 kts | 267° |
| 2026-04-27 12:20 | -33.99556 | 21.12111 | 10260 ft | 185 kts | 267° |
| 2026-04-27 12:20 | -33.99534 | 21.10560 | 10254 ft | 185 kts | 267° |
| 2026-04-27 12:20 | -33.99515 | 21.09007 | 10258 ft | 185 kts | 267° |
| 2026-04-27 12:21 | -33.99489 | 21.07459 | 10255 ft | 185 kts | 267° |
| 2026-04-27 12:21 | -33.99465 | 21.05911 | 10246 ft | 184 kts | 267° |
| 2026-04-27 12:21 | -33.99441 | 21.04364 | 10248 ft | 184 kts | 266° |
| 2026-04-27 12:21 | -33.99419 | 21.02825 | 10251 ft | 184 kts | 266° |
| 2026-04-27 12:22 | -33.99397 | 21.01285 | 10254 ft | 183 kts | 267° |
| 2026-04-27 12:22 | -33.99373 | 20.99745 | 10251 ft | 183 kts | 267° |
| 2026-04-27 12:22 | -33.99347 | 20.98209 | 10256 ft | 184 kts | 267° |
| 2026-04-27 12:22 | -33.99322 | 20.96682 | 10247 ft | 185 kts | 267° |
| 2026-04-27 12:23 | -33.99300 | 20.95135 | 10254 ft | 184 kts | 267° |
| 2026-04-27 12:23 | -33.99276 | 20.93590 | 10254 ft | 184 kts | 267° |
| 2026-04-27 12:23 | -33.99249 | 20.92049 | 10256 ft | 184 kts | 267° |
| 2026-04-27 12:23 | -33.99224 | 20.90509 | 10252 ft | 184 kts | 267° |
| 2026-04-27 12:24 | -33.99201 | 20.88964 | 10252 ft | 185 kts | 267° |
| 2026-04-27 12:24 | -33.99176 | 20.87412 | 10252 ft | 185 kts | 267° |
| 2026-04-27 12:24 | -33.99148 | 20.85861 | 10252 ft | 185 kts | 268° |
| 2026-04-27 12:24 | -33.99120 | 20.84320 | 10242 ft | 182 kts | 267° |
| 2026-04-27 12:25 | -33.99095 | 20.82798 | 10251 ft | 182 kts | 267° |
| 2026-04-27 12:25 | -33.99069 | 20.81277 | 10255 ft | 182 kts | 267° |
| 2026-04-27 12:25 | -33.99044 | 20.79755 | 10250 ft | 181 kts | 267° |
| 2026-04-27 12:25 | -33.99018 | 20.78257 | 10252 ft | 180 kts | 267° |
| 2026-04-27 12:26 | -33.98992 | 20.76750 | 10254 ft | 179 kts | 267° |
| 2026-04-27 12:26 | -33.98965 | 20.75243 | 10257 ft | 180 kts | 267° |
| 2026-04-27 12:26 | -33.98939 | 20.73726 | 10258 ft | 182 kts | 267° |
| 2026-04-27 12:26 | -33.98911 | 20.72204 | 10261 ft | 182 kts | 267° |
| 2026-04-27 12:27 | -33.98883 | 20.70674 | 10256 ft | 182 kts | 267° |
| 2026-04-27 12:27 | -33.98855 | 20.69152 | 10255 ft | 182 kts | 267° |
| 2026-04-27 12:27 | -33.98831 | 20.67621 | 10250 ft | 183 kts | 267° |
| 2026-04-27 12:27 | -33.98804 | 20.66109 | 10258 ft | 183 kts | 268° |
| 2026-04-27 12:28 | -33.98773 | 20.64575 | 10257 ft | 183 kts | 267° |
| 2026-04-27 12:28 | -33.98746 | 20.63034 | 10256 ft | 184 kts | 267° |
| 2026-04-27 12:28 | -33.98717 | 20.61492 | 10254 ft | 184 kts | 267° |
| 2026-04-27 12:28 | -33.98690 | 20.59947 | 10259 ft | 184 kts | 268° |
| 2026-04-27 12:29 | -33.98660 | 20.58407 | 10249 ft | 183 kts | 267° |
| 2026-04-27 12:29 | -33.98630 | 20.56879 | 10268 ft | 182 kts | 267° |
| 2026-04-27 12:29 | -33.98602 | 20.55354 | 10254 ft | 182 kts | 268° |
| 2026-04-27 12:29 | -33.98576 | 20.53820 | 10241 ft | 182 kts | 268° |
| 2026-04-27 12:30 | -33.98549 | 20.52304 | 10243 ft | 180 kts | 268° |
| 2026-04-27 12:30 | -33.98510 | 20.50821 | 10254 ft | 178 kts | 268° |
| 2026-04-27 12:30 | -33.98482 | 20.49343 | 10265 ft | 175 kts | 267° |
| 2026-04-27 12:30 | -33.98457 | 20.47866 | 10274 ft | 177 kts | 268° |
| 2026-04-27 12:31 | -33.98430 | 20.46367 | 10274 ft | 181 kts | 268° |
| 2026-04-27 12:31 | -33.98400 | 20.44836 | 10263 ft | 183 kts | 268° |
| 2026-04-27 12:31 | -33.98364 | 20.43309 | 10265 ft | 182 kts | 268° |
| 2026-04-27 12:31 | -33.98334 | 20.41773 | 10269 ft | 183 kts | 268° |
| 2026-04-27 12:32 | -33.98302 | 20.40240 | 10262 ft | 184 kts | 268° |
| 2026-04-27 12:32 | -33.98274 | 20.38695 | 10250 ft | 185 kts | 268° |
| 2026-04-27 12:32 | -33.98243 | 20.37143 | 10253 ft | 186 kts | 268° |
| 2026-04-27 12:32 | -33.98210 | 20.35593 | 10257 ft | 185 kts | 268° |
| 2026-04-27 12:33 | -33.98177 | 20.34048 | 10264 ft | 184 kts | 268° |
| 2026-04-27 12:33 | -33.98144 | 20.32511 | 10262 ft | 183 kts | 267° |
| 2026-04-27 12:33 | -33.98113 | 20.30978 | 10264 ft | 183 kts | 267° |
| 2026-04-27 12:33 | -33.98082 | 20.29445 | 10263 ft | 183 kts | 267° |
| 2026-04-27 12:34 | -33.98050 | 20.27933 | 10257 ft | 184 kts | 268° |
| 2026-04-27 12:34 | -33.98019 | 20.26391 | 10257 ft | 183 kts | 268° |
| 2026-04-27 12:34 | -33.97982 | 20.24859 | 10263 ft | 182 kts | 268° |
| 2026-04-27 12:34 | -33.97951 | 20.23328 | 10261 ft | 183 kts | 268° |
| 2026-04-27 12:35 | -33.97919 | 20.21791 | 10257 ft | 183 kts | 268° |
| 2026-04-27 12:35 | -33.97884 | 20.20255 | 10267 ft | 183 kts | 268° |
| 2026-04-27 12:35 | -33.97850 | 20.18728 | 10261 ft | 182 kts | 268° |
| 2026-04-27 12:35 | -33.97815 | 20.17207 | 10265 ft | 180 kts | 268° |
| 2026-04-27 12:36 | -33.97786 | 20.15714 | 10261 ft | 180 kts | 268° |
| 2026-04-27 12:36 | -33.97751 | 20.14213 | 10265 ft | 178 kts | 268° |
| 2026-04-27 12:36 | -33.97718 | 20.12726 | 10255 ft | 178 kts | 268° |
| 2026-04-27 12:36 | -33.97684 | 20.11236 | 10267 ft | 178 kts | 268° |
| 2026-04-27 12:37 | -33.97650 | 20.09748 | 10262 ft | 177 kts | 268° |
| 2026-04-27 12:37 | -33.97615 | 20.08265 | 10260 ft | 176 kts | 268° |
| 2026-04-27 12:37 | -33.97582 | 20.06792 | 10271 ft | 175 kts | 268° |
| 2026-04-27 12:37 | -33.97548 | 20.05325 | 10265 ft | 175 kts | 268° |
| 2026-04-27 12:38 | -33.97514 | 20.03859 | 10267 ft | 175 kts | 268° |
| 2026-04-27 12:38 | -33.97480 | 20.02394 | 10267 ft | 175 kts | 268° |
| 2026-04-27 12:38 | -33.97446 | 20.00928 | 10264 ft | 175 kts | 268° |
| 2026-04-27 12:38 | -33.97410 | 19.99458 | 10264 ft | 175 kts | 267° |
| 2026-04-27 12:39 | -33.97381 | 19.97989 | 10270 ft | 175 kts | 268° |
| 2026-04-27 12:39 | -33.97344 | 19.96516 | 10268 ft | 176 kts | 268° |
| 2026-04-27 12:39 | -33.97306 | 19.95056 | 10269 ft | 176 kts | 268° |
| 2026-04-27 12:39 | -33.97270 | 19.93579 | 10267 ft | 177 kts | 268° |
| 2026-04-27 12:40 | -33.97236 | 19.92095 | 10267 ft | 177 kts | 268° |
| 2026-04-27 12:40 | -33.97201 | 19.90607 | 10267 ft | 178 kts | 268° |
| 2026-04-27 12:40 | -33.97164 | 19.89113 | 10265 ft | 178 kts | 268° |
| 2026-04-27 12:40 | -33.97127 | 19.87634 | 10270 ft | 178 kts | 268° |
| 2026-04-27 12:41 | -33.97089 | 19.86145 | 10274 ft | 178 kts | 268° |
| 2026-04-27 12:41 | -33.97054 | 19.84655 | 10271 ft | 178 kts | 268° |
| 2026-04-27 12:41 | -33.97018 | 19.83161 | 10266 ft | 179 kts | 268° |
| 2026-04-27 12:41 | -33.96983 | 19.81665 | 10270 ft | 178 kts | 267° |
| 2026-04-27 12:42 | -33.97197 | 19.80215 | 10286 ft | 176 kts | 245° |
| 2026-04-27 12:42 | -33.97746 | 19.78907 | 10271 ft | 174 kts | 242° |
| 2026-04-27 12:42 | -33.98297 | 19.77618 | 10267 ft | 173 kts | 241° |
| 2026-04-27 12:42 | -33.98853 | 19.76330 | 10261 ft | 173 kts | 241° |
| 2026-04-27 12:43 | -33.99406 | 19.75061 | 10261 ft | 172 kts | 241° |
| 2026-04-27 12:43 | -33.99957 | 19.73785 | 10267 ft | 171 kts | 242° |
| 2026-04-27 12:43 | -34.00503 | 19.72506 | 10264 ft | 171 kts | 241° |
| 2026-04-27 12:43 | -34.01050 | 19.71233 | 10273 ft | 171 kts | 241° |
| 2026-04-27 12:44 | -34.01601 | 19.69960 | 10276 ft | 172 kts | 241° |
| 2026-04-27 12:44 | -34.02152 | 19.68672 | 10274 ft | 173 kts | 241° |
| 2026-04-27 12:44 | -34.02708 | 19.67378 | 10270 ft | 173 kts | 241° |
| 2026-04-27 12:44 | -34.03263 | 19.66091 | 10268 ft | 173 kts | 242° |
| 2026-04-27 12:45 | -34.03810 | 19.64804 | 10276 ft | 172 kts | 241° |
| 2026-04-27 12:45 | -34.04363 | 19.63515 | 10274 ft | 173 kts | 241° |
| 2026-04-27 12:45 | -34.04919 | 19.62229 | 10279 ft | 173 kts | 241° |
| 2026-04-27 12:45 | -34.05460 | 19.60936 | 10274 ft | 173 kts | 246° |
| 2026-04-27 12:46 | -34.05664 | 19.59520 | 10272 ft | 174 kts | 269° |
| 2026-04-27 12:46 | -34.05544 | 19.58079 | 10288 ft | 176 kts | 271° |
| 2026-04-27 12:46 | -34.05422 | 19.56605 | 10277 ft | 177 kts | 271° |
| 2026-04-27 12:46 | -34.05298 | 19.55124 | 10279 ft | 178 kts | 271° |
| 2026-04-27 12:47 | -34.05171 | 19.53635 | 10272 ft | 178 kts | 271° |
| 2026-04-27 12:47 | -34.05045 | 19.52146 | 10276 ft | 178 kts | 271° |
| 2026-04-27 12:47 | -34.04919 | 19.50661 | 10278 ft | 178 kts | 271° |
| 2026-04-27 12:47 | -34.04794 | 19.49172 | 10278 ft | 178 kts | 271° |
| 2026-04-27 12:48 | -34.04667 | 19.47690 | 10272 ft | 178 kts | 271° |
| 2026-04-27 12:48 | -34.04543 | 19.46207 | 10275 ft | 178 kts | 271° |
| 2026-04-27 12:48 | -34.04416 | 19.44719 | 10280 ft | 179 kts | 271° |
| 2026-04-27 12:48 | -34.04289 | 19.43224 | 10275 ft | 179 kts | 271° |
| 2026-04-27 12:49 | -34.04162 | 19.41728 | 10275 ft | 180 kts | 271° |
| 2026-04-27 12:49 | -34.04030 | 19.40226 | 10283 ft | 180 kts | 271° |
| 2026-04-27 12:49 | -34.03904 | 19.38719 | 10279 ft | 181 kts | 271° |
| 2026-04-27 12:49 | -34.03777 | 19.37229 | 10288 ft | 181 kts | 271° |
| 2026-04-27 12:50 | -34.03648 | 19.35721 | 10286 ft | 180 kts | 271° |
| 2026-04-27 12:50 | -34.03520 | 19.34215 | 10282 ft | 181 kts | 271° |
| 2026-04-27 12:50 | -34.03390 | 19.32706 | 10286 ft | 181 kts | 271° |
| 2026-04-27 12:50 | -34.03205 | 19.31204 | 10273 ft | 182 kts | 282° |
| 2026-04-27 12:51 | -34.02745 | 19.29767 | 10290 ft | 185 kts | 287° |
| 2026-04-27 12:51 | -34.02242 | 19.28332 | 10284 ft | 186 kts | 287° |
| 2026-04-27 12:51 | -34.01739 | 19.26895 | 10281 ft | 186 kts | 287° |
| 2026-04-27 12:51 | -34.01234 | 19.25456 | 10290 ft | 186 kts | 287° |
| 2026-04-27 12:52 | -34.00726 | 19.24016 | 10290 ft | 186 kts | 287° |
| 2026-04-27 12:52 | -34.00220 | 19.22578 | 10289 ft | 186 kts | 287° |
| 2026-04-27 12:52 | -33.99723 | 19.21156 | 10288 ft | 186 kts | 287° |
| 2026-04-27 12:52 | -33.99223 | 19.19716 | 10289 ft | 186 kts | 287° |
| 2026-04-27 12:53 | -33.98207 | 19.16848 | 10288 ft | 186 kts | 287° |
| 2026-04-27 12:53 | -33.97698 | 19.15415 | 10288 ft | 186 kts | 287° |
| 2026-04-27 12:53 | -33.97193 | 19.13986 | 10279 ft | 185 kts | 287° |
| 2026-04-27 12:54 | -33.96689 | 19.12556 | 10283 ft | 185 kts | 287° |
| 2026-04-27 12:54 | -33.96188 | 19.11138 | 10282 ft | 186 kts | 287° |
| 2026-04-27 12:54 | -33.95676 | 19.09704 | 10315 ft | 185 kts | 287° |
| 2026-04-27 12:54 | -33.95151 | 19.08219 | 10047 ft | 199 kts | 287° |
| 2026-04-27 12:55 | -33.94606 | 19.06645 | 9794 ft | 207 kts | 287° |
| 2026-04-27 12:55 | -33.94053 | 19.05009 | 9495 ft | 213 kts | 287° |
| 2026-04-27 12:55 | -33.93493 | 19.03344 | 9225 ft | 215 kts | 287° |
| 2026-04-27 12:55 | -33.92933 | 19.01667 | 8977 ft | 217 kts | 287° |
| 2026-04-27 12:56 | -33.92373 | 18.99976 | 8693 ft | 218 kts | 287° |
| 2026-04-27 12:56 | -33.91817 | 18.98296 | 8409 ft | 218 kts | 287° |
| 2026-04-27 12:56 | -33.91261 | 18.96597 | 8134 ft | 218 kts | 287° |
| 2026-04-27 12:56 | -33.90699 | 18.94887 | 7833 ft | 221 kts | 287° |
| 2026-04-27 12:57 | -33.90135 | 18.93154 | 7528 ft | 223 kts | 287° |
| 2026-04-27 12:57 | -33.89573 | 18.91407 | 7251 ft | 224 kts | 287° |
| 2026-04-27 12:57 | -33.89010 | 18.89653 | 6981 ft | 225 kts | 287° |
| 2026-04-27 12:57 | -33.88458 | 18.87921 | 6914 ft | 217 kts | 287° |
| 2026-04-27 12:58 | -33.87930 | 18.86265 | 6977 ft | 208 kts | 287° |
| 2026-04-27 12:58 | -33.87414 | 18.84661 | 7017 ft | 204 kts | 287° |
| 2026-04-27 12:58 | -33.86909 | 18.83098 | 7022 ft | 202 kts | 287° |
| 2026-04-27 12:58 | -33.86399 | 18.81523 | 7014 ft | 202 kts | 287° |
| 2026-04-27 12:59 | -33.85889 | 18.79953 | 7014 ft | 201 kts | 287° |
| 2026-04-27 12:59 | -33.85380 | 18.78385 | 7017 ft | 201 kts | 287° |
| 2026-04-27 12:59 | -33.84866 | 18.76812 | 7018 ft | 203 kts | 287° |
| 2026-04-27 12:59 | -33.84343 | 18.75232 | 7023 ft | 202 kts | 287° |
| 2026-04-27 13:00 | -33.83833 | 18.73679 | 7013 ft | 202 kts | 287° |
| 2026-04-27 13:00 | -33.83311 | 18.72095 | 7016 ft | 202 kts | 288° |
| 2026-04-27 13:00 | -33.82792 | 18.70522 | 7007 ft | 202 kts | 287° |
| 2026-04-27 13:00 | -33.82270 | 18.68948 | 7011 ft | 203 kts | 287° |
| 2026-04-27 13:01 | -33.81744 | 18.67371 | 7011 ft | 203 kts | 288° |
| 2026-04-27 13:01 | -33.81228 | 18.65816 | 7010 ft | 203 kts | 288° |
| 2026-04-27 13:01 | -33.80707 | 18.64237 | 7010 ft | 203 kts | 288° |
| 2026-04-27 13:01 | -33.80181 | 18.62657 | 6945 ft | 207 kts | 288° |
| 2026-04-27 13:02 | -33.79523 | 18.61064 | 6652 ft | 219 kts | 303° |
| 2026-04-27 13:02 | -33.78320 | 18.59877 | 6199 ft | 235 kts | 330° |
| 2026-04-27 13:02 | -33.76728 | 18.59243 | 5695 ft | 247 kts | 343° |
| 2026-04-27 13:02 | -33.75046 | 18.58743 | 5231 ft | 251 kts | 344° |
| 2026-04-27 13:03 | -33.73337 | 18.58248 | 4735 ft | 254 kts | 344° |
| 2026-04-27 13:03 | -33.71618 | 18.57750 | 4222 ft | 255 kts | 345° |
| 2026-04-27 13:03 | -33.69895 | 18.57255 | 3713 ft | 255 kts | 345° |
| 2026-04-27 13:03 | -33.68133 | 18.57067 | 3180 ft | 256 kts | 0° |
| 2026-04-27 13:04 | -33.66356 | 18.57172 | 2746 ft | 253 kts | 2° |
| 2026-04-27 13:04 | -33.64706 | 18.57302 | 3052 ft | 227 kts | 2° |
| 2026-04-27 13:04 | -33.63165 | 18.57487 | 3178 ft | 221 kts | 6° |
| 2026-04-27 13:04 | -33.61658 | 18.57862 | 3115 ft | 224 kts | 24° |
| 2026-04-27 13:05 | -33.60465 | 18.59046 | 3084 ft | 225 kts | 54° |
| 2026-04-27 13:05 | -33.59872 | 18.60760 | 3077 ft | 223 kts | 83° |
| 2026-04-27 13:05 | -33.59989 | 18.62558 | 3086 ft | 218 kts | 110° |
| 2026-04-27 13:05 | -33.60768 | 18.64088 | 3082 ft | 214 kts | 138° |
| 2026-04-27 13:06 | -33.62019 | 18.64988 | 3068 ft | 210 kts | 166° |
| 2026-04-27 13:06 | -33.63453 | 18.65078 | 3077 ft | 207 kts | 192° |
| 2026-04-27 13:06 | -33.64804 | 18.64519 | 3067 ft | 204 kts | 203° |
| 2026-04-27 13:06 | -33.66105 | 18.63843 | 3070 ft | 203 kts | 204° |
| 2026-04-27 13:07 | -33.66963 | 18.63389 | 3075 ft | 203 kts | 204° |
| 2026-04-27 13:07 | -33.68255 | 18.62698 | 3087 ft | 203 kts | 204° |
| 2026-04-27 13:07 | -33.69967 | 18.61770 | 3069 ft | 203 kts | 205° |
| 2026-04-27 13:07 | -33.71257 | 18.61067 | 3077 ft | 203 kts | 205° |
| 2026-04-27 13:08 | -33.72515 | 18.60380 | 3075 ft | 191 kts | 205° |
| 2026-04-27 13:08 | -33.73298 | 18.59953 | 3077 ft | 181 kts | 205° |
| 2026-04-27 13:08 | -33.74380 | 18.59366 | 3070 ft | 160 kts | 205° |
| 2026-04-27 13:08 | -33.75349 | 18.58844 | 3064 ft | 147 kts | 205° |
| 2026-04-27 13:09 | -33.76243 | 18.58358 | 3060 ft | 137 kts | 205° |
| 2026-04-27 13:09 | -33.77093 | 18.57895 | 3058 ft | 131 kts | 205° |
| 2026-04-27 13:09 | -33.77899 | 18.57454 | 3071 ft | 125 kts | 204° |
| 2026-04-27 13:09 | -33.78962 | 18.56875 | 2943 ft | 133 kts | 205° |
| 2026-04-27 13:10 | -33.79530 | 18.56569 | 2884 ft | 126 kts | 205° |
| 2026-04-27 13:10 | -33.80250 | 18.56190 | 2869 ft | 101 kts | 205° |
| 2026-04-27 13:10 | -33.80823 | 18.55892 | 2876 ft | 81 kts | 205° |
| 2026-04-27 13:10 | -33.81312 | 18.55734 | 2869 ft | 66 kts | 220° |
| 2026-04-27 13:11 | -33.81701 | 18.55427 | 2635 ft | 79 kts | 181° |
| 2026-04-27 13:11 | -33.82198 | 18.55539 | 2545 ft | 72 kts | 165° |
| 2026-04-27 13:11 | -33.82663 | 18.55659 | 2413 ft | 73 kts | 166° |
| 2026-04-27 13:11 | -33.83204 | 18.55909 | 2210 ft | 99 kts | 161° |
| 2026-04-27 13:12 | -33.83890 | 18.56113 | 2299 ft | 95 kts | 176° |
| 2026-04-27 13:12 | -33.84485 | 18.56340 | 2455 ft | 86 kts | 171° |
| 2026-04-27 13:12 | -33.85056 | 18.56504 | 2485 ft | 89 kts | 173° |
| 2026-04-27 13:12 | -33.85784 | 18.56747 | 2168 ft | 122 kts | 169° |
| 2026-04-27 13:13 | -33.86647 | 18.57067 | 1891 ft | 141 kts | 168° |
| 2026-04-27 13:13 | -33.87638 | 18.57364 | 1669 ft | 146 kts | 168° |
| 2026-04-27 13:13 | -33.88657 | 18.57707 | 1332 ft | 145 kts | 166° |
| 2026-04-27 13:13 | -33.89477 | 18.58034 | 1170 ft | 116 kts | 166° |
| 2026-04-27 13:14 | -33.90223 | 18.58259 | 1037 ft | 104 kts | 168° |
| 2026-04-27 13:14 | -33.90896 | 18.58471 | 941 ft | 93 kts | 169° |
| 2026-04-27 13:14 | -33.91535 | 18.58677 | 826 ft | 98 kts | 170° |
| 2026-04-27 13:14 | -33.92217 | 18.58892 | 782 ft | 107 kts | 170° |
| 2026-04-27 13:15 | -33.92959 | 18.59133 | 727 ft | 113 kts | 170° |
| 2026-04-27 13:15 | -33.93718 | 18.59347 | 648 ft | 109 kts | 172° |
| 2026-04-27 13:15 | -33.94445 | 18.59546 | 480 ft | 100 kts | 171° |
| 2026-04-27 13:15 | -33.95114 | 18.59752 | 396 ft | 101 kts | 167° |
| 2026-04-27 13:16 | -33.95778 | 18.59955 | 268 ft | 93 kts | 167° |
| 2026-04-27 13:16 | -33.96366 | 18.60131 | 173 ft | 80 kts | 166° |
| 2026-04-27 13:16 | -33.96781 | 18.60257 | 153 ft | 47 kts | 165° |
| 2026-04-27 13:16 | -33.97042 | 18.60340 | 151 ft | 32 kts | 165° |
| 2026-04-27 13:17 | -33.97235 | 18.60401 | 148 ft | 28 kts | 165° |
| 2026-04-27 13:17 | -33.97432 | 18.60460 | 147 ft | 32 kts | 167° |
| 2026-04-27 13:17 | -33.97659 | 18.60531 | 148 ft | 28 kts | 166° |
| 2026-04-27 13:17 | -33.97780 | 18.60557 | 149 ft | 15 kts | 212° |
| 2026-04-27 13:18 | -33.97777 | 18.60452 | 149 ft | 13 kts | 283° |
| 2026-04-27 13:18 | -33.97754 | 18.60350 | 149 ft | 12 kts | 284° |
| 2026-04-27 13:18 | -33.97733 | 18.60249 | 149 ft | 12 kts | 285° |
| 2026-04-27 13:18 | -33.97751 | 18.60157 | 149 ft | 11 kts | 251° |
| 2026-04-27 13:19 | -33.97775 | 18.60075 | 149 ft | 10 kts | 251° |
| 2026-04-27 13:19 | -33.97796 | 18.60002 | 149 ft | 9 kts | 249° |
| 2026-04-27 13:19 | -33.97816 | 18.59938 | 149 ft | 8 kts | 250° |
| 2026-04-27 13:19 | -33.97833 | 18.59880 | 149 ft | 7 kts | 251° |
| 2026-04-27 13:20 | -33.97840 | 18.59827 | 149 ft | 6 kts | 308° |
| 2026-04-27 13:20 | -33.97790 | 18.59805 | 149 ft | 9 kts | 344° |
| 2026-04-27 13:20 | -33.97715 | 18.59778 | 149 ft | 13 kts | 339° |
| 2026-04-27 13:20 | -33.97657 | 18.59750 | 149 ft | 6 kts | 336° |
| 2026-04-27 13:21 | -33.97619 | 18.59766 | 149 ft | 8 kts | 78° |
| 2026-04-27 13:21 | -33.97612 | 18.59790 | 149 ft | 0 kts | 59° |